Poreč, Croatia

02:40 AM CEST on marec 30, 2017 (GMT +0200)
Funtana Frane Blečića 42 | | Change Station

Viš 50 ft 45.17 °N, 13.60 °E | Updated 6 seconds ago

Jasno
Jasno
51.4 °F
Feels Like 51.4 °F
N
3.8
Veter Spremenljivo Veter od JV
Gusts 5.4 mph

Danes
High -- | Low -- °F
--% Chance of Precip.
Yesterday
High -- | Low -- °F
Precip. -- v
Zračni tlak 30.21 v
Vidljivost -9999.0 milje
Oblaki
Rosišče 37 °F
Vlažnost 58%
Padavine 0.00 v
Snow Depth Not available.
6:49 AM 7:30 PM
Naraščajoči krajec, 5% visible
METAR LDPL 300030Z AUTO 03007KT CAVOK 14/02 Q1023
Zračni tlak 30.21 v
Vidljivost -9999.0 milje
Oblaki
Rosišče 37 °F
Vlažnost 58%
Padavine 0.00 v
Snow Depth Not available.
6:49 AM 7:30 PM
Naraščajoči krajec, 5% visible
METAR LDPL 300030Z AUTO 03007KT CAVOK 14/02 Q1023

Get Severe Weather Alerts

Thanks for signing up!

Be on the lookout for a verification email in your inbox.

You'll start receiving the daily forecast at 8 AM.

×

10-Day Weather Forecast

×

Almanac

Astronomija

Mar. 30, 2017 Rise Set
Actual Time
Civil Twilight
Nautical Twilight
Astronomical Twilight
Moon
Length Of Visible Light
Dolžina dneva
Tomorrow will be .
, % of the Moon is Illuminated

Današnji ekstremi

Country Highs Country Lows

Community

WunderPhotos

Upload Photos

1,962,540 photos uploaded!

WunderBlog® & News

Nearby

Air Quality

  Air Quality AQ Index Pollutant
Not available.

Snow Depth

Station Depth Višina

Earthquake Activity

City Distance Mag. Time & Date
Minimum magnitude displayed is 2.5.

Earthquake Activity

City Distance Mag. Time & Date
Minimum magnitude displayed is 2.5.

Coastal Water Temperatures

Mesto Temperatura

Stations

Nearby Weather Stations

Station Location Temp Občutek zaradi vetra Rosišče Vlažnost Veter Precip. Viš Obnovljeno Type